sensor_id;sensor_type;location;lat;lon;timestamp;P1;durP1;ratioP1;P2;durP2;ratioP2
13321;SDS011;6730;46.248;6.930;2023-07-30T00:01:53;2.55;;;2.35;;
13321;SDS011;6730;46.248;6.930;2023-07-30T00:04:19;3.00;;;2.28;;
13321;SDS011;6730;46.248;6.930;2023-07-30T00:06:46;2.47;;;2.28;;
13321;SDS011;6730;46.248;6.930;2023-07-30T00:09:11;2.40;;;2.20;;
13321;SDS011;6730;46.248;6.930;2023-07-30T00:11:37;3.05;;;2.42;;
13321;SDS011;6730;46.248;6.930;2023-07-30T00:14:03;2.50;;;2.15;;
13321;SDS011;6730;46.248;6.930;2023-07-30T00:16:29;2.30;;;2.10;;
13321;SDS011;6730;46.248;6.930;2023-07-30T00:18:55;3.65;;;2.10;;
13321;SDS011;6730;46.248;6.930;2023-07-30T00:21:21;3.85;;;2.63;;
13321;SDS011;6730;46.248;6.930;2023-07-30T00:23:47;2.78;;;2.50;;
13321;SDS011;6730;46.248;6.930;2023-07-30T00:26:13;4.78;;;2.30;;
13321;SDS011;6730;46.248;6.930;2023-07-30T00:28:39;2.92;;;2.58;;
13321;SDS011;6730;46.248;6.930;2023-07-30T00:31:04;3.60;;;2.50;;
13321;SDS011;6730;46.248;6.930;2023-07-30T00:33:30;3.60;;;2.97;;
13321;SDS011;6730;46.248;6.930;2023-07-30T00:35:55;2.38;;;2.00;;
13321;SDS011;6730;46.248;6.930;2023-07-30T00:38:21;4.63;;;2.40;;
13321;SDS011;6730;46.248;6.930;2023-07-30T00:40:47;2.35;;;2.13;;
13321;SDS011;6730;46.248;6.930;2023-07-30T00:43:12;3.47;;;2.20;;
13321;SDS011;6730;46.248;6.930;2023-07-30T00:45:38;2.78;;;2.42;;
13321;SDS011;6730;46.248;6.930;2023-07-30T00:48:07;2.25;;;2.05;;
13321;SDS011;6730;46.248;6.930;2023-07-30T00:50:34;2.47;;;2.00;;
13321;SDS011;6730;46.248;6.930;2023-07-30T00:53:00;2.42;;;2.17;;
13321;SDS011;6730;46.248;6.930;2023-07-30T00:55:26;3.25;;;2.30;;
13321;SDS011;6730;46.248;6.930;2023-07-30T00:57:51;2.38;;;2.17;;
13321;SDS011;6730;46.248;6.930;2023-07-30T01:00:17;4.75;;;2.00;;
13321;SDS011;6730;46.248;6.930;2023-07-30T01:02:43;4.25;;;1.95;;
13321;SDS011;6730;46.248;6.930;2023-07-30T01:05:09;5.43;;;2.05;;
13321;SDS011;6730;46.248;6.930;2023-07-30T01:07:35;2.10;;;1.90;;
13321;SDS011;6730;46.248;6.930;2023-07-30T01:10:01;4.47;;;2.10;;
13321;SDS011;6730;46.248;6.930;2023-07-30T01:12:27;2.20;;;1.95;;
13321;SDS011;6730;46.248;6.930;2023-07-30T01:14:56;2.17;;;1.98;;
13321;SDS011;6730;46.248;6.930;2023-07-30T01:17:22;2.20;;;2.00;;
13321;SDS011;6730;46.248;6.930;2023-07-30T01:19:54;2.13;;;1.90;;
13321;SDS011;6730;46.248;6.930;2023-07-30T01:22:20;3.90;;;1.90;;
13321;SDS011;6730;46.248;6.930;2023-07-30T01:24:46;2.53;;;1.95;;
13321;SDS011;6730;46.248;6.930;2023-07-30T01:27:22;3.63;;;2.13;;
13321;SDS011;6730;46.248;6.930;2023-07-30T01:32:31;1.80;;;1.70;;
13321;SDS011;6730;46.248;6.930;2023-07-30T01:34:58;2.55;;;1.70;;
13321;SDS011;6730;46.248;6.930;2023-07-30T01:37:27;2.00;;;1.80;;
13321;SDS011;6730;46.248;6.930;2023-07-30T01:39:54;1.73;;;1.63;;
13321;SDS011;6730;46.248;6.930;2023-07-30T01:42:21;1.90;;;1.80;;
13321;SDS011;6730;46.248;6.930;2023-07-30T01:44:53;3.17;;;1.70;;
13321;SDS011;6730;46.248;6.930;2023-07-30T01:47:19;1.85;;;1.73;;
13321;SDS011;6730;46.248;6.930;2023-07-30T01:49:44;2.00;;;1.70;;
13321;SDS011;6730;46.248;6.930;2023-07-30T01:52:10;1.92;;;1.77;;
13321;SDS011;6730;46.248;6.930;2023-07-30T01:54:35;1.50;;;1.40;;
13321;SDS011;6730;46.248;6.930;2023-07-30T01:57:01;2.22;;;1.67;;
13321;SDS011;6730;46.248;6.930;2023-07-30T01:59:27;2.10;;;1.90;;
13321;SDS011;6730;46.248;6.930;2023-07-30T02:01:53;2.95;;;1.73;;
13321;SDS011;6730;46.248;6.930;2023-07-30T02:04:18;4.70;;;1.77;;
13321;SDS011;6730;46.248;6.930;2023-07-30T02:06:47;1.92;;;1.73;;
13321;SDS011;6730;46.248;6.930;2023-07-30T02:09:13;1.92;;;1.50;;
13321;SDS011;6730;46.248;6.930;2023-07-30T02:11:39;2.75;;;1.65;;
13321;SDS011;6730;46.248;6.930;2023-07-30T02:14:04;4.38;;;1.75;;
13321;SDS011;6730;46.248;6.930;2023-07-30T02:16:30;2.25;;;2.00;;
13321;SDS011;6730;46.248;6.930;2023-07-30T02:18:56;3.28;;;2.00;;
13321;SDS011;6730;46.248;6.930;2023-07-30T02:21:21;2.20;;;1.80;;
13321;SDS011;6730;46.248;6.930;2023-07-30T02:23:47;1.77;;;1.67;;
13321;SDS011;6730;46.248;6.930;2023-07-30T02:26:13;3.92;;;1.80;;
13321;SDS011;6730;46.248;6.930;2023-07-30T02:28:38;1.60;;;1.50;;
13321;SDS011;6730;46.248;6.930;2023-07-30T02:31:04;2.15;;;1.85;;
13321;SDS011;6730;46.248;6.930;2023-07-30T02:33:30;2.30;;;1.50;;
13321;SDS011;6730;46.248;6.930;2023-07-30T02:35:55;4.50;;;1.80;;
13321;SDS011;6730;46.248;6.930;2023-07-30T02:38:21;2.65;;;1.67;;
13321;SDS011;6730;46.248;6.930;2023-07-30T02:40:49;2.10;;;1.70;;
13321;SDS011;6730;46.248;6.930;2023-07-30T02:43:15;2.90;;;1.60;;
13321;SDS011;6730;46.248;6.930;2023-07-30T02:45:41;2.60;;;1.55;;
13321;SDS011;6730;46.248;6.930;2023-07-30T02:48:06;2.92;;;1.90;;
13321;SDS011;6730;46.248;6.930;2023-07-30T02:50:32;2.53;;;1.67;;
13321;SDS011;6730;46.248;6.930;2023-07-30T02:52:57;2.63;;;1.60;;
13321;SDS011;6730;46.248;6.930;2023-07-30T02:55:23;2.38;;;1.50;;
13321;SDS011;6730;46.248;6.930;2023-07-30T02:57:49;2.15;;;1.70;;
13321;SDS011;6730;46.248;6.930;2023-07-30T03:00:14;5.07;;;1.50;;
13321;SDS011;6730;46.248;6.930;2023-07-30T03:02:40;1.98;;;1.77;;
13321;SDS011;6730;46.248;6.930;2023-07-30T03:05:06;1.63;;;1.50;;
13321;SDS011;6730;46.248;6.930;2023-07-30T03:07:32;2.42;;;1.70;;
13321;SDS011;6730;46.248;6.930;2023-07-30T03:09:57;2.60;;;1.95;;
13321;SDS011;6730;46.248;6.930;2023-07-30T03:12:23;2.05;;;1.70;;
13321;SDS011;6730;46.248;6.930;2023-07-30T03:14:49;4.32;;;2.00;;
13321;SDS011;6730;46.248;6.930;2023-07-30T03:17:14;1.52;;;1.40;;
13321;SDS011;6730;46.248;6.930;2023-07-30T03:19:40;5.30;;;1.88;;
13321;SDS011;6730;46.248;6.930;2023-07-30T03:22:06;1.73;;;1.50;;
13321;SDS011;6730;46.248;6.930;2023-07-30T03:24:31;3.92;;;1.90;;
13321;SDS011;6730;46.248;6.930;2023-07-30T03:26:57;2.50;;;2.05;;
13321;SDS011;6730;46.248;6.930;2023-07-30T03:29:22;1.60;;;1.50;;
13321;SDS011;6730;46.248;6.930;2023-07-30T03:31:48;1.95;;;1.50;;
13321;SDS011;6730;46.248;6.930;2023-07-30T03:34:14;2.55;;;1.70;;
13321;SDS011;6730;46.248;6.930;2023-07-30T03:36:39;1.92;;;1.73;;
13321;SDS011;6730;46.248;6.930;2023-07-30T03:39:05;2.00;;;1.80;;
13321;SDS011;6730;46.248;6.930;2023-07-30T03:41:31;1.65;;;1.50;;
13321;SDS011;6730;46.248;6.930;2023-07-30T03:43:56;1.55;;;1.45;;
13321;SDS011;6730;46.248;6.930;2023-07-30T03:46:22;1.90;;;1.80;;
13321;SDS011;6730;46.248;6.930;2023-07-30T03:48:48;1.60;;;1.50;;
13321;SDS011;6730;46.248;6.930;2023-07-30T03:51:13;2.55;;;1.70;;
13321;SDS011;6730;46.248;6.930;2023-07-30T03:53:39;1.70;;;1.60;;
13321;SDS011;6730;46.248;6.930;2023-07-30T03:56:04;2.22;;;2.03;;
13321;SDS011;6730;46.248;6.930;2023-07-30T03:58:30;2.17;;;1.70;;
13321;SDS011;6730;46.248;6.930;2023-07-30T04:00:56;2.22;;;2.03;;
13321;SDS011;6730;46.248;6.930;2023-07-30T04:03:21;1.92;;;1.73;;
13321;SDS011;6730;46.248;6.930;2023-07-30T04:05:47;3.65;;;1.90;;
13321;SDS011;6730;46.248;6.930;2023-07-30T04:08:13;2.10;;;1.75;;
13321;SDS011;6730;46.248;6.930;2023-07-30T04:10:38;2.33;;;1.83;;
13321;SDS011;6730;46.248;6.930;2023-07-30T04:13:04;2.42;;;2.20;;
13321;SDS011;6730;46.248;6.930;2023-07-30T04:15:32;2.58;;;1.67;;
13321;SDS011;6730;46.248;6.930;2023-07-30T04:17:58;2.03;;;1.83;;
13321;SDS011;6730;46.248;6.930;2023-07-30T04:20:24;2.20;;;1.65;;
13321;SDS011;6730;46.248;6.930;2023-07-30T04:22:51;2.38;;;2.17;;
13321;SDS011;6730;46.248;6.930;2023-07-30T04:25:17;2.38;;;1.80;;
13321;SDS011;6730;46.248;6.930;2023-07-30T04:27:44;2.67;;;2.10;;
13321;SDS011;6730;46.248;6.930;2023-07-30T04:30:09;1.90;;;1.70;;
13321;SDS011;6730;46.248;6.930;2023-07-30T04:32:35;4.90;;;2.25;;
13321;SDS011;6730;46.248;6.930;2023-07-30T04:35:01;2.17;;;1.80;;
13321;SDS011;6730;46.248;6.930;2023-07-30T04:37:28;3.05;;;1.90;;
13321;SDS011;6730;46.248;6.930;2023-07-30T04:39:53;2.03;;;1.83;;
13321;SDS011;6730;46.248;6.930;2023-07-30T04:42:19;2.33;;;2.10;;
13321;SDS011;6730;46.248;6.930;2023-07-30T04:44:45;2.03;;;1.83;;
13321;SDS011;6730;46.248;6.930;2023-07-30T04:47:10;1.92;;;1.70;;
13321;SDS011;6730;46.248;6.930;2023-07-30T04:49:36;5.85;;;1.92;;
13321;SDS011;6730;46.248;6.930;2023-07-30T04:52:05;1.85;;;1.75;;
13321;SDS011;6730;46.248;6.930;2023-07-30T04:54:31;2.38;;;1.75;;
13321;SDS011;6730;46.248;6.930;2023-07-30T04:56:57;3.60;;;1.60;;
13321;SDS011;6730;46.248;6.930;2023-07-30T04:59:23;2.25;;;2.05;;
13321;SDS011;6730;46.248;6.930;2023-07-30T05:01:49;2.08;;;1.88;;
13321;SDS011;6730;46.248;6.930;2023-07-30T05:04:14;1.65;;;1.55;;
13321;SDS011;6730;46.248;6.930;2023-07-30T05:06:40;2.45;;;1.70;;
13321;SDS011;6730;46.248;6.930;2023-07-30T05:09:05;3.35;;;1.77;;
13321;SDS011;6730;46.248;6.930;2023-07-30T05:11:31;4.72;;;2.33;;
13321;SDS011;6730;46.248;6.930;2023-07-30T05:13:57;4.60;;;2.33;;
13321;SDS011;6730;46.248;6.930;2023-07-30T05:16:22;2.65;;;1.60;;
13321;SDS011;6730;46.248;6.930;2023-07-30T05:18:48;2.20;;;1.88;;
13321;SDS011;6730;46.248;6.930;2023-07-30T05:21:13;3.22;;;2.03;;
13321;SDS011;6730;46.248;6.930;2023-07-30T05:23:39;2.10;;;1.90;;
13321;SDS011;6730;46.248;6.930;2023-07-30T05:26:05;3.80;;;2.72;;
13321;SDS011;6730;46.248;6.930;2023-07-30T05:28:30;2.03;;;1.83;;
13321;SDS011;6730;46.248;6.930;2023-07-30T05:30:56;2.92;;;1.80;;
13321;SDS011;6730;46.248;6.930;2023-07-30T05:33:22;2.42;;;1.90;;
13321;SDS011;6730;46.248;6.930;2023-07-30T05:35:47;2.28;;;2.08;;
13321;SDS011;6730;46.248;6.930;2023-07-30T05:38:13;2.50;;;1.90;;
13321;SDS011;6730;46.248;6.930;2023-07-30T05:40:38;2.67;;;2.42;;
13321;SDS011;6730;46.248;6.930;2023-07-30T05:43:04;3.42;;;2.38;;
13321;SDS011;6730;46.248;6.930;2023-07-30T05:45:30;2.72;;;2.05;;
13321;SDS011;6730;46.248;6.930;2023-07-30T05:47:55;5.57;;;2.20;;
13321;SDS011;6730;46.248;6.930;2023-07-30T05:50:21;2.50;;;2.03;;
13321;SDS011;6730;46.248;6.930;2023-07-30T05:52:46;2.45;;;2.08;;
13321;SDS011;6730;46.248;6.930;2023-07-30T05:55:12;2.35;;;2.08;;
13321;SDS011;6730;46.248;6.930;2023-07-30T05:57:38;2.15;;;1.95;;
13321;SDS011;6730;46.248;6.930;2023-07-30T06:00:03;3.67;;;2.50;;
13321;SDS011;6730;46.248;6.930;2023-07-30T06:02:29;2.60;;;2.28;;
13321;SDS011;6730;46.248;6.930;2023-07-30T06:04:55;2.63;;;2.10;;
13321;SDS011;6730;46.248;6.930;2023-07-30T06:07:21;4.45;;;1.95;;
13321;SDS011;6730;46.248;6.930;2023-07-30T06:09:46;2.67;;;2.45;;
13321;SDS011;6730;46.248;6.930;2023-07-30T06:12:12;2.38;;;2.17;;
13321;SDS011;6730;46.248;6.930;2023-07-30T06:14:38;2.10;;;1.90;;
13321;SDS011;6730;46.248;6.930;2023-07-30T06:17:03;3.50;;;2.03;;
13321;SDS011;6730;46.248;6.930;2023-07-30T06:19:29;2.22;;;2.00;;
13321;SDS011;6730;46.248;6.930;2023-07-30T06:21:55;1.98;;;1.77;;
13321;SDS011;6730;46.248;6.930;2023-07-30T06:24:21;3.72;;;2.30;;
13321;SDS011;6730;46.248;6.930;2023-07-30T06:26:46;4.18;;;2.20;;
13321;SDS011;6730;46.248;6.930;2023-07-30T06:29:14;4.03;;;2.40;;
13321;SDS011;6730;46.248;6.930;2023-07-30T06:31:40;3.15;;;2.17;;
13321;SDS011;6730;46.248;6.930;2023-07-30T06:34:05;2.20;;;1.95;;
13321;SDS011;6730;46.248;6.930;2023-07-30T06:36:31;4.93;;;2.50;;
13321;SDS011;6730;46.248;6.930;2023-07-30T06:38:57;3.75;;;2.55;;
13321;SDS011;6730;46.248;6.930;2023-07-30T06:41:23;2.58;;;2.25;;
13321;SDS011;6730;46.248;6.930;2023-07-30T06:43:50;2.22;;;1.90;;
13321;SDS011;6730;46.248;6.930;2023-07-30T06:46:15;3.13;;;2.30;;
13321;SDS011;6730;46.248;6.930;2023-07-30T06:48:58;3.17;;;2.30;;
13321;SDS011;6730;46.248;6.930;2023-07-30T06:51:24;2.17;;;1.98;;
13321;SDS011;6730;46.248;6.930;2023-07-30T06:53:50;2.33;;;2.13;;
13321;SDS011;6730;46.248;6.930;2023-07-30T06:56:16;2.85;;;2.00;;
13321;SDS011;6730;46.248;6.930;2023-07-30T06:58:41;3.85;;;2.20;;
13321;SDS011;6730;46.248;6.930;2023-07-30T07:01:07;3.50;;;2.03;;
13321;SDS011;6730;46.248;6.930;2023-07-30T07:03:34;2.95;;;2.33;;
13321;SDS011;6730;46.248;6.930;2023-07-30T07:06:00;2.42;;;2.22;;
13321;SDS011;6730;46.248;6.930;2023-07-30T07:08:25;2.58;;;2.35;;
13321;SDS011;6730;46.248;6.930;2023-07-30T07:10:52;4.43;;;2.58;;
13321;SDS011;6730;46.248;6.930;2023-07-30T07:13:18;2.63;;;2.15;;
13321;SDS011;6730;46.248;6.930;2023-07-30T07:15:44;2.55;;;2.20;;
13321;SDS011;6730;46.248;6.930;2023-07-30T07:18:10;2.10;;;1.90;;
13321;SDS011;6730;46.248;6.930;2023-07-30T07:20:36;2.88;;;2.08;;
13321;SDS011;6730;46.248;6.930;2023-07-30T07:23:02;2.30;;;2.10;;
13321;SDS011;6730;46.248;6.930;2023-07-30T07:25:28;2.45;;;2.25;;
13321;SDS011;6730;46.248;6.930;2023-07-30T07:27:54;2.95;;;2.22;;
13321;SDS011;6730;46.248;6.930;2023-07-30T07:30:19;2.45;;;2.25;;
13321;SDS011;6730;46.248;6.930;2023-07-30T07:32:45;9.73;;;2.80;;
13321;SDS011;6730;46.248;6.930;2023-07-30T07:35:15;50.28;;;4.35;;
13321;SDS011;6730;46.248;6.930;2023-07-30T07:37:41;12.82;;;3.40;;
13321;SDS011;6730;46.248;6.930;2023-07-30T07:40:06;2.80;;;2.55;;
13321;SDS011;6730;46.248;6.930;2023-07-30T07:42:34;3.83;;;2.35;;
13321;SDS011;6730;46.248;6.930;2023-07-30T07:45:00;3.28;;;2.97;;
13321;SDS011;6730;46.248;6.930;2023-07-30T07:47:26;3.53;;;2.45;;
13321;SDS011;6730;46.248;6.930;2023-07-30T07:49:51;3.50;;;3.05;;
13321;SDS011;6730;46.248;6.930;2023-07-30T07:52:17;3.78;;;2.67;;
13321;SDS011;6730;46.248;6.930;2023-07-30T07:54:44;3.35;;;2.70;;
13321;SDS011;6730;46.248;6.930;2023-07-30T07:57:10;3.00;;;2.70;;
13321;SDS011;6730;46.248;6.930;2023-07-30T07:59:35;4.78;;;2.70;;
13321;SDS011;6730;46.248;6.930;2023-07-30T08:02:01;3.08;;;2.33;;
13321;SDS011;6730;46.248;6.930;2023-07-30T08:04:27;2.38;;;1.90;;
13321;SDS011;6730;46.248;6.930;2023-07-30T08:06:53;2.30;;;2.10;;
13321;SDS011;6730;46.248;6.930;2023-07-30T08:09:18;3.22;;;2.25;;
13321;SDS011;6730;46.248;6.930;2023-07-30T08:11:44;2.35;;;2.15;;
13321;SDS011;6730;46.248;6.930;2023-07-30T08:14:10;3.60;;;2.15;;
13321;SDS011;6730;46.248;6.930;2023-07-30T08:16:35;4.28;;;2.92;;
13321;SDS011;6730;46.248;6.930;2023-07-30T08:19:01;3.67;;;2.58;;
13321;SDS011;6730;46.248;6.930;2023-07-30T08:21:27;2.38;;;2.17;;
13321;SDS011;6730;46.248;6.930;2023-07-30T08:23:52;2.60;;;2.40;;
13321;SDS011;6730;46.248;6.930;2023-07-30T08:26:18;2.58;;;2.30;;
13321;SDS011;6730;46.248;6.930;2023-07-30T08:28:44;2.33;;;2.10;;
13321;SDS011;6730;46.248;6.930;2023-07-30T08:31:09;2.75;;;2.20;;
13321;SDS011;6730;46.248;6.930;2023-07-30T08:33:35;2.65;;;2.40;;
13321;SDS011;6730;46.248;6.930;2023-07-30T08:36:01;4.85;;;2.80;;
13321;SDS011;6730;46.248;6.930;2023-07-30T08:38:27;2.70;;;2.50;;
13321;SDS011;6730;46.248;6.930;2023-07-30T08:40:53;3.00;;;2.65;;
13321;SDS011;6730;46.248;6.930;2023-07-30T08:43:19;2.42;;;2.22;;
13321;SDS011;6730;46.248;6.930;2023-07-30T08:45:44;2.75;;;2.55;;
13321;SDS011;6730;46.248;6.930;2023-07-30T08:48:10;3.78;;;2.92;;
13321;SDS011;6730;46.248;6.930;2023-07-30T08:50:36;2.63;;;2.42;;
13321;SDS011;6730;46.248;6.930;2023-07-30T08:53:02;3.40;;;3.10;;
13321;SDS011;6730;46.248;6.930;2023-07-30T08:55:29;3.10;;;2.80;;
13321;SDS011;6730;46.248;6.930;2023-07-30T08:57:59;3.50;;;3.20;;
13321;SDS011;6730;46.248;6.930;2023-07-30T09:00:26;3.20;;;2.90;;
13321;SDS011;6730;46.248;6.930;2023-07-30T09:02:58;2.83;;;2.63;;
13321;SDS011;6730;46.248;6.930;2023-07-30T09:05:25;3.10;;;2.80;;
13321;SDS011;6730;46.248;6.930;2023-07-30T09:07:54;2.80;;;2.60;;
13321;SDS011;6730;46.248;6.930;2023-07-30T09:10:20;2.42;;;2.22;;
13321;SDS011;6730;46.248;6.930;2023-07-30T09:12:46;2.72;;;2.53;;
13321;SDS011;6730;46.248;6.930;2023-07-30T09:15:29;2.63;;;2.42;;
13321;SDS011;6730;46.248;6.930;2023-07-30T09:18:00;2.30;;;2.10;;
13321;SDS011;6730;46.248;6.930;2023-07-30T09:20:26;2.60;;;2.40;;
13321;SDS011;6730;46.248;6.930;2023-07-30T09:22:52;2.40;;;2.20;;
13321;SDS011;6730;46.248;6.930;2023-07-30T09:25:21;2.42;;;2.22;;
13321;SDS011;6730;46.248;6.930;2023-07-30T09:27:51;2.67;;;2.17;;
13321;SDS011;6730;46.248;6.930;2023-07-30T09:30:23;2.60;;;2.40;;
13321;SDS011;6730;46.248;6.930;2023-07-30T09:32:53;2.60;;;2.40;;
13321;SDS011;6730;46.248;6.930;2023-07-30T09:35:20;2.60;;;2.40;;
13321;SDS011;6730;46.248;6.930;2023-07-30T09:37:47;3.25;;;2.50;;
13321;SDS011;6730;46.248;6.930;2023-07-30T09:40:13;3.20;;;2.30;;
13321;SDS011;6730;46.248;6.930;2023-07-30T09:42:43;3.30;;;2.65;;
13321;SDS011;6730;46.248;6.930;2023-07-30T09:45:17;2.47;;;2.28;;
13321;SDS011;6730;46.248;6.930;2023-07-30T09:47:46;2.58;;;2.38;;
13321;SDS011;6730;46.248;6.930;2023-07-30T09:50:15;2.67;;;2.42;;
13321;SDS011;6730;46.248;6.930;2023-07-30T09:52:41;2.72;;;2.50;;
13321;SDS011;6730;46.248;6.930;2023-07-30T09:55:08;3.58;;;2.33;;
13321;SDS011;6730;46.248;6.930;2023-07-30T09:57:35;2.45;;;2.25;;
13321;SDS011;6730;46.248;6.930;2023-07-30T10:00:02;2.60;;;2.40;;
13321;SDS011;6730;46.248;6.930;2023-07-30T10:02:29;2.55;;;2.35;;
13321;SDS011;6730;46.248;6.930;2023-07-30T10:04:59;2.55;;;2.22;;
13321;SDS011;6730;46.248;6.930;2023-07-30T10:07:26;2.67;;;2.47;;
13321;SDS011;6730;46.248;6.930;2023-07-30T10:09:54;2.60;;;2.40;;
13321;SDS011;6730;46.248;6.930;2023-07-30T10:12:24;3.05;;;2.50;;
13321;SDS011;6730;46.248;6.930;2023-07-30T10:14:53;4.70;;;2.45;;
13321;SDS011;6730;46.248;6.930;2023-07-30T10:17:20;2.60;;;2.40;;
13321;SDS011;6730;46.248;6.930;2023-07-30T10:19:49;3.60;;;2.42;;
13321;SDS011;6730;46.248;6.930;2023-07-30T10:24:56;4.05;;;2.60;;
13321;SDS011;6730;46.248;6.930;2023-07-30T10:27:23;2.70;;;2.47;;
13321;SDS011;6730;46.248;6.930;2023-07-30T10:29:51;2.53;;;2.33;;
13321;SDS011;6730;46.248;6.930;2023-07-30T10:38:14;2.50;;;2.30;;
13321;SDS011;6730;46.248;6.930;2023-07-30T10:43:29;5.05;;;2.83;;
13321;SDS011;6730;46.248;6.930;2023-07-30T10:45:55;2.92;;;2.72;;
13321;SDS011;6730;46.248;6.930;2023-07-30T10:48:34;3.78;;;2.60;;
13321;SDS011;6730;46.248;6.930;2023-07-30T10:51:03;2.90;;;2.25;;
13321;SDS011;6730;46.248;6.930;2023-07-30T10:53:31;3.05;;;2.42;;
13321;SDS011;6730;46.248;6.930;2023-07-30T10:56:00;3.17;;;2.30;;
13321;SDS011;6730;46.248;6.930;2023-07-30T10:58:31;2.60;;;2.30;;
13321;SDS011;6730;46.248;6.930;2023-07-30T11:00:58;2.40;;;2.20;;
13321;SDS011;6730;46.248;6.930;2023-07-30T11:03:25;2.95;;;2.67;;
13321;SDS011;6730;46.248;6.930;2023-07-30T11:05:51;3.03;;;2.72;;
13321;SDS011;6730;46.248;6.930;2023-07-30T11:08:18;3.20;;;2.70;;
13321;SDS011;6730;46.248;6.930;2023-07-30T11:10:44;3.28;;;2.88;;
13321;SDS011;6730;46.248;6.930;2023-07-30T11:13:12;3.20;;;2.90;;
13321;SDS011;6730;46.248;6.930;2023-07-30T11:15:43;3.30;;;2.75;;
13321;SDS011;6730;46.248;6.930;2023-07-30T11:18:10;2.67;;;2.35;;
13321;SDS011;6730;46.248;6.930;2023-07-30T11:20:37;2.95;;;2.75;;
13321;SDS011;6730;46.248;6.930;2023-07-30T11:23:22;2.90;;;2.70;;
13321;SDS011;6730;46.248;6.930;2023-07-30T11:25:52;2.70;;;2.50;;
13321;SDS011;6730;46.248;6.930;2023-07-30T11:28:32;3.42;;;3.13;;
13321;SDS011;6730;46.248;6.930;2023-07-30T11:31:02;4.43;;;2.40;;
13321;SDS011;6730;46.248;6.930;2023-07-30T11:33:33;2.42;;;2.22;;
13321;SDS011;6730;46.248;6.930;2023-07-30T11:36:09;2.42;;;2.22;;
13321;SDS011;6730;46.248;6.930;2023-07-30T11:38:54;2.70;;;2.38;;
13321;SDS011;6730;46.248;6.930;2023-07-30T11:41:29;2.47;;;2.25;;
13321;SDS011;6730;46.248;6.930;2023-07-30T11:43:55;3.75;;;2.05;;
13321;SDS011;6730;46.248;6.930;2023-07-30T11:46:21;2.60;;;2.30;;
13321;SDS011;6730;46.248;6.930;2023-07-30T11:48:48;3.03;;;2.30;;
13321;SDS011;6730;46.248;6.930;2023-07-30T11:51:18;2.03;;;1.77;;
13321;SDS011;6730;46.248;6.930;2023-07-30T11:53:50;2.40;;;2.20;;
13321;SDS011;6730;46.248;6.930;2023-07-30T11:58:47;2.50;;;2.10;;
13321;SDS011;6730;46.248;6.930;2023-07-30T12:01:14;3.58;;;2.15;;
13321;SDS011;6730;46.248;6.930;2023-07-30T12:03:41;2.20;;;2.00;;
13321;SDS011;6730;46.248;6.930;2023-07-30T12:06:07;2.25;;;2.03;;
13321;SDS011;6730;46.248;6.930;2023-07-30T12:08:34;1.90;;;1.80;;
13321;SDS011;6730;46.248;6.930;2023-07-30T12:11:07;3.65;;;2.30;;
13321;SDS011;6730;46.248;6.930;2023-07-30T12:13:34;2.22;;;2.03;;
13321;SDS011;6730;46.248;6.930;2023-07-30T12:16:09;4.18;;;2.08;;
13321;SDS011;6730;46.248;6.930;2023-07-30T12:18:34;3.60;;;2.22;;
13321;SDS011;6730;46.248;6.930;2023-07-30T12:21:00;2.35;;;2.15;;
13321;SDS011;6730;46.248;6.930;2023-07-30T12:23:26;2.30;;;2.10;;
13321;SDS011;6730;46.248;6.930;2023-07-30T12:25:51;2.20;;;2.00;;
13321;SDS011;6730;46.248;6.930;2023-07-30T12:28:18;2.25;;;2.05;;
13321;SDS011;6730;46.248;6.930;2023-07-30T12:30:43;2.63;;;2.00;;
13321;SDS011;6730;46.248;6.930;2023-07-30T12:33:09;2.65;;;2.42;;
13321;SDS011;6730;46.248;6.930;2023-07-30T12:35:35;2.20;;;2.00;;
13321;SDS011;6730;46.248;6.930;2023-07-30T12:38:00;2.47;;;2.28;;
13321;SDS011;6730;46.248;6.930;2023-07-30T12:40:26;2.53;;;2.33;;
13321;SDS011;6730;46.248;6.930;2023-07-30T12:43:02;2.85;;;2.10;;
13321;SDS011;6730;46.248;6.930;2023-07-30T12:45:28;2.80;;;2.17;;
13321;SDS011;6730;46.248;6.930;2023-07-30T12:47:55;1.80;;;1.70;;
13321;SDS011;6730;46.248;6.930;2023-07-30T12:50:20;2.28;;;2.08;;
13321;SDS011;6730;46.248;6.930;2023-07-30T12:52:46;2.78;;;1.90;;
13321;SDS011;6730;46.248;6.930;2023-07-30T12:55:12;2.10;;;2.00;;
13321;SDS011;6730;46.248;6.930;2023-07-30T12:57:37;2.70;;;2.30;;
13321;SDS011;6730;46.248;6.930;2023-07-30T13:00:03;2.92;;;2.17;;
13321;SDS011;6730;46.248;6.930;2023-07-30T13:02:30;2.20;;;1.92;;
13321;SDS011;6730;46.248;6.930;2023-07-30T13:04:58;2.25;;;2.05;;
13321;SDS011;6730;46.248;6.930;2023-07-30T13:07:24;2.28;;;2.05;;
13321;SDS011;6730;46.248;6.930;2023-07-30T13:10:01;1.65;;;1.55;;
13321;SDS011;6730;46.248;6.930;2023-07-30T13:12:30;2.13;;;1.90;;
13321;SDS011;6730;46.248;6.930;2023-07-30T13:14:56;2.03;;;1.83;;
13321;SDS011;6730;46.248;6.930;2023-07-30T13:17:22;1.77;;;1.67;;
13321;SDS011;6730;46.248;6.930;2023-07-30T13:19:48;2.65;;;2.08;;
13321;SDS011;6730;46.248;6.930;2023-07-30T13:22:13;2.25;;;2.05;;
13321;SDS011;6730;46.248;6.930;2023-07-30T13:24:39;2.75;;;2.00;;
13321;SDS011;6730;46.248;6.930;2023-07-30T13:27:05;2.28;;;1.98;;
13321;SDS011;6730;46.248;6.930;2023-07-30T13:29:31;2.40;;;2.20;;
13321;SDS011;6730;46.248;6.930;2023-07-30T13:31:56;3.53;;;2.00;;
13321;SDS011;6730;46.248;6.930;2023-07-30T13:34:22;2.10;;;1.70;;
13321;SDS011;6730;46.248;6.930;2023-07-30T13:36:47;2.15;;;1.95;;
13321;SDS011;6730;46.248;6.930;2023-07-30T13:39:13;2.60;;;2.05;;
13321;SDS011;6730;46.248;6.930;2023-07-30T13:41:39;2.38;;;2.17;;
13321;SDS011;6730;46.248;6.930;2023-07-30T13:44:05;1.80;;;1.70;;
13321;SDS011;6730;46.248;6.930;2023-07-30T13:46:30;3.33;;;2.13;;
13321;SDS011;6730;46.248;6.930;2023-07-30T13:48:56;2.33;;;2.13;;
13321;SDS011;6730;46.248;6.930;2023-07-30T13:51:22;3.20;;;2.20;;
13321;SDS011;6730;46.248;6.930;2023-07-30T13:53:47;2.95;;;1.90;;
13321;SDS011;6730;46.248;6.930;2023-07-30T13:56:13;2.55;;;2.00;;
13321;SDS011;6730;46.248;6.930;2023-07-30T13:58:39;3.75;;;1.83;;
13321;SDS011;6730;46.248;6.930;2023-07-30T14:01:06;2.53;;;2.03;;
13321;SDS011;6730;46.248;6.930;2023-07-30T14:03:33;2.72;;;2.03;;
13321;SDS011;6730;46.248;6.930;2023-07-30T14:05:59;2.30;;;2.03;;
13321;SDS011;6730;46.248;6.930;2023-07-30T14:08:25;3.15;;;2.40;;
13321;SDS011;6730;46.248;6.930;2023-07-30T14:10:50;2.38;;;2.17;;
13321;SDS011;6730;46.248;6.930;2023-07-30T14:13:16;2.47;;;2.28;;
13321;SDS011;6730;46.248;6.930;2023-07-30T14:15:42;3.83;;;2.30;;
13321;SDS011;6730;46.248;6.930;2023-07-30T14:18:23;2.60;;;2.40;;
13321;SDS011;6730;46.248;6.930;2023-07-30T14:20:55;2.20;;;2.00;;
13321;SDS011;6730;46.248;6.930;2023-07-30T14:23:20;2.25;;;2.05;;
13321;SDS011;6730;46.248;6.930;2023-07-30T14:25:46;2.40;;;2.20;;
13321;SDS011;6730;46.248;6.930;2023-07-30T14:28:15;2.45;;;2.00;;
13321;SDS011;6730;46.248;6.930;2023-07-30T14:30:43;2.85;;;2.17;;
13321;SDS011;6730;46.248;6.930;2023-07-30T14:33:12;2.75;;;2.10;;
13321;SDS011;6730;46.248;6.930;2023-07-30T14:35:38;2.47;;;2.28;;
13321;SDS011;6730;46.248;6.930;2023-07-30T14:38:05;2.97;;;1.88;;
13321;SDS011;6730;46.248;6.930;2023-07-30T14:40:31;2.13;;;1.88;;
13321;SDS011;6730;46.248;6.930;2023-07-30T14:42:57;3.47;;;1.70;;
13321;SDS011;6730;46.248;6.930;2023-07-30T14:45:22;2.50;;;2.00;;
13321;SDS011;6730;46.248;6.930;2023-07-30T14:47:48;2.25;;;1.75;;
13321;SDS011;6730;46.248;6.930;2023-07-30T14:50:14;2.45;;;1.95;;
13321;SDS011;6730;46.248;6.930;2023-07-30T14:52:40;1.75;;;1.65;;
13321;SDS011;6730;46.248;6.930;2023-07-30T14:55:05;1.98;;;1.60;;
13321;SDS011;6730;46.248;6.930;2023-07-30T14:57:32;1.85;;;1.70;;
13321;SDS011;6730;46.248;6.930;2023-07-30T14:59:58;2.00;;;1.80;;
13321;SDS011;6730;46.248;6.930;2023-07-30T15:02:25;1.70;;;1.60;;
13321;SDS011;6730;46.248;6.930;2023-07-30T15:04:55;2.20;;;1.92;;
13321;SDS011;6730;46.248;6.930;2023-07-30T15:07:21;2.13;;;1.60;;
13321;SDS011;6730;46.248;6.930;2023-07-30T15:09:51;1.90;;;1.70;;
13321;SDS011;6730;46.248;6.930;2023-07-30T15:12:17;2.05;;;1.80;;
13321;SDS011;6730;46.248;6.930;2023-07-30T15:14:43;1.52;;;1.40;;